Time,TemperatureF,DewpointF,PressureIn,WindDirection,WindDirectionDegrees,WindSpeedMPH,WindSpeedGustMPH,Humidity,HourlyPrecipIn,Conditions,Clouds,dailyrainin,SoftwareType,DateUTC
2013-03-28 00:03:00,37.0,28.0,29.96,North,0,0.0,-999.0,69,-99.99,,,-99.99,,2013-03-28 04:03:00,
2013-03-28 00:12:00,37.0,28.0,29.96,SW,220,3.0,-999.0,69,-99.99,,,-99.99,,2013-03-28 04:12:00,
2013-03-28 00:23:00,37.0,28.0,29.96,SW,230,3.0,-999.0,69,-99.99,,,-99.99,,2013-03-28 04:23:00,
2013-03-28 00:32:00,37.0,28.0,29.96,SW,230,3.0,-999.0,69,-99.99,,,-99.99,,2013-03-28 04:32:00,
2013-03-28 00:42:00,36.0,28.0,29.96,North,0,0.0,-999.0,74,-99.99,,,-99.99,,2013-03-28 04:42:00,
2013-03-28 00:52:00,36.0,28.0,29.96,North,0,0.0,-999.0,74,-99.99,,,-99.99,,2013-03-28 04:52:00,
2013-03-28 01:02:00,36.0,28.0,29.96,North,0,0.0,-999.0,74,-99.99,,,-99.99,,2013-03-28 05:02:00,
2013-03-28 01:12:00,36.0,28.0,29.96,SW,230,3.0,-999.0,74,-99.99,,,-99.99,,2013-03-28 05:12:00,
2013-03-28 01:22:00,36.0,28.0,29.96,WSW,240,3.0,-999.0,74,-99.99,,,-99.99,,2013-03-28 05:22:00,
2013-03-28 01:32:00,36.0,28.0,29.96,WSW,240,3.0,-999.0,74,-99.99,,,-99.99,,2013-03-28 05:32:00,
2013-03-28 01:42:00,36.0,28.0,29.96,WSW,240,3.0,-999.0,74,-99.99,,,-99.99,,2013-03-28 05:42:00,
2013-03-28 01:52:00,36.0,28.0,29.95,WSW,240,3.0,-999.0,74,-99.99,,,-99.99,,2013-03-28 05:52:00,
2013-03-28 02:02:00,36.0,28.0,29.95,WSW,240,3.0,-999.0,74,-99.99,,,-99.99,,2013-03-28 06:02:00,
2013-03-28 02:12:00,34.0,28.0,29.95,North,0,0.0,-999.0,80,-99.99,,,-99.99,,2013-03-28 06:12:00,
2013-03-28 02:22:00,34.0,28.0,29.95,SW,220,3.0,-999.0,80,-99.99,,,-99.99,,2013-03-28 06:22:00,
2013-03-28 02:32:00,32.0,28.0,29.95,North,0,0.0,-999.0,86,-99.99,,,-99.99,,2013-03-28 06:32:00,
2013-03-28 02:42:00,32.0,28.0,29.96,North,0,0.0,-999.0,86,-99.99,,,-99.99,,2013-03-28 06:42:00,
2013-03-28 02:52:00,32.0,28.0,29.95,SW,220,5.0,-999.0,86,-99.99,,,-99.99,,2013-03-28 06:52:00,
2013-03-28 03:02:00,32.0,28.0,29.95,SW,220,5.0,-999.0,86,-99.99,,,-99.99,,2013-03-28 07:02:00,
2013-03-28 03:12:00,34.0,28.0,29.95,SW,220,3.0,-999.0,80,-99.99,,,-99.99,,2013-03-28 07:12:00,
2013-03-28 03:22:00,34.0,28.0,29.96,SSW,210,3.0,-999.0,80,-99.99,,,-99.99,,2013-03-28 07:22:00,
2013-03-28 03:32:00,34.0,28.0,29.96,SW,230,3.0,-999.0,80,-99.99,,,-99.99,,2013-03-28 07:32:00,
2013-03-28 03:42:00,34.0,28.0,29.96,North,0,0.0,-999.0,80,-99.99,,,-99.99,,2013-03-28 07:42:00,
2013-03-28 03:52:00,34.0,28.0,29.96,SW,230,3.0,-999.0,80,-99.99,,,-99.99,,2013-03-28 07:52:00,
2013-03-28 04:02:00,34.0,28.0,29.96,SW,230,3.0,-999.0,80,-99.99,,,-99.99,,2013-03-28 08:02:00,
2013-03-28 04:12:00,34.0,28.0,29.96,SW,220,3.0,-999.0,80,-99.99,,,-99.99,,2013-03-28 08:12:00,
2013-03-28 04:21:00,34.0,28.0,29.96,North,0,0.0,-999.0,80,-99.99,,,-99.99,,2013-03-28 08:21:00,
2013-03-28 04:32:00,34.0,28.0,29.96,WSW,240,3.0,-999.0,80,-99.99,,,-99.99,,2013-03-28 08:32:00,
2013-03-28 04:42:00,34.0,28.0,29.96,SW,230,3.0,-999.0,80,-99.99,,,-99.99,,2013-03-28 08:42:00,
2013-03-28 04:52:00,34.0,28.0,29.96,North,0,0.0,-999.0,80,-99.99,,,-99.99,,2013-03-28 08:52:00,
2013-03-28 05:02:00,34.0,28.0,29.96,North,0,0.0,-999.0,80,-99.99,,,-99.99,,2013-03-28 09:02:00,
2013-03-28 05:12:00,34.0,28.0,29.96,SW,230,3.0,-999.0,80,-99.99,,,-99.99,,2013-03-28 09:12:00,
2013-03-28 05:22:00,34.0,28.0,29.96,SW,230,3.0,-999.0,80,-99.99,,,-99.99,,2013-03-28 09:22:00,
2013-03-28 05:32:00,34.0,28.0,29.97,North,0,0.0,-999.0,80,-99.99,,,-99.99,,2013-03-28 09:32:00,
2013-03-28 05:42:00,34.0,28.0,29.97,North,0,0.0,-999.0,80,-99.99,,,-99.99,,2013-03-28 09:42:00,
2013-03-28 05:52:00,34.0,28.0,29.97,North,0,0.0,-999.0,80,-99.99,,,-99.99,,2013-03-28 09:52:00,
2013-03-28 06:03:00,34.0,28.0,29.97,North,0,0.0,-999.0,80,-99.99,,,-99.99,,2013-03-28 10:03:00,
2013-03-28 06:12:00,34.0,28.0,29.97,SW,230,3.0,-999.0,80,-99.99,,,-99.99,,2013-03-28 10:12:00,
2013-03-28 06:22:00,34.0,28.0,29.97,SW,230,5.0,-999.0,80,-99.99,,,-99.99,,2013-03-28 10:22:00,
2013-03-28 06:33:00,34.0,28.0,29.97,SW,230,5.0,-999.0,80,-99.99,,,-99.99,,2013-03-28 10:33:00,
2013-03-28 06:42:00,34.0,28.0,29.98,WSW,240,5.0,-999.0,80,-99.99,,,-99.99,,2013-03-28 10:42:00,
2013-03-28 06:52:00,34.0,30.0,29.98,WSW,240,5.0,-999.0,86,-99.99,,,-99.99,,2013-03-28 10:52:00,
2013-03-28 07:02:00,34.0,30.0,29.98,WSW,240,5.0,-999.0,86,-99.99,,,-99.99,,2013-03-28 11:02:00,
2013-03-28 07:12:00,34.0,30.0,29.98,SW,230,6.0,-999.0,86,-99.99,,,-99.99,,2013-03-28 11:12:00,
2013-03-28 07:23:00,34.0,30.0,29.99,SW,230,3.0,-999.0,86,-99.99,,,-99.99,,2013-03-28 11:23:00,
2013-03-28 07:32:00,34.0,30.0,29.99,North,0,0.0,-999.0,86,-99.99,,,-99.99,,2013-03-28 11:32:00,
2013-03-28 07:42:00,36.0,30.0,29.99,North,0,0.0,-999.0,80,-99.99,,,-99.99,,2013-03-28 11:42:00,
2013-03-28 07:52:00,36.0,30.0,30.00,SW,230,3.0,-999.0,80,-99.99,,,-99.99,,2013-03-28 11:52:00,
2013-03-28 08:02:00,36.0,30.0,30.00,SW,230,3.0,-999.0,80,-99.99,,,-99.99,,2013-03-28 12:02:00,
2013-03-28 08:12:00,36.0,30.0,30.01,SW,230,5.0,-999.0,80,-99.99,,,-99.99,,2013-03-28 12:12:00,
2013-03-28 08:22:00,36.0,30.0,30.01,SW,230,5.0,-999.0,80,-99.99,,,-99.99,,2013-03-28 12:22:00,
2013-03-28 08:32:00,36.0,30.0,30.01,SW,230,5.0,-999.0,80,-99.99,,,-99.99,,2013-03-28 12:32:00,
2013-03-28 08:42:00,36.0,30.0,30.01,WSW,250,5.0,-999.0,80,-99.99,,,-99.99,,2013-03-28 12:42:00,
2013-03-28 08:52:00,37.0,32.0,30.01,West,260,6.0,-999.0,80,-99.99,,,-99.99,,2013-03-28 12:52:00,
2013-03-28 09:02:00,37.0,32.0,30.01,West,260,6.0,-999.0,80,-99.99,,,-99.99,,2013-03-28 13:02:00,
2013-03-28 09:12:00,37.0,32.0,30.01,West,260,6.0,-999.0,80,-99.99,,,-99.99,,2013-03-28 13:12:00,
2013-03-28 09:22:00,37.0,32.0,30.02,WSW,250,5.0,-999.0,80,-99.99,,,-99.99,,2013-03-28 13:22:00,
2013-03-28 09:32:00,37.0,32.0,30.02,WSW,240,5.0,-999.0,80,-99.99,,,-99.99,,2013-03-28 13:32:00,
2013-03-28 09:42:00,37.0,32.0,30.02,West,280,3.0,-999.0,80,-99.99,,,-99.99,,2013-03-28 13:42:00,
2013-03-28 09:52:00,37.0,32.0,30.02,WNW,290,6.0,-999.0,80,-99.99,,,-99.99,,2013-03-28 13:52:00,
2013-03-28 10:02:00,37.0,32.0,30.02,WNW,290,6.0,-999.0,80,-99.99,,,-99.99,,2013-03-28 14:02:00,
2013-03-28 10:12:00,37.0,34.0,30.02,West,260,5.0,-999.0,86,-99.99,,,-99.99,,2013-03-28 14:12:00,
2013-03-28 10:22:00,39.0,34.0,30.03,West,260,6.0,-999.0,80,-99.99,,,-99.99,,2013-03-28 14:22:00,
2013-03-28 10:32:00,39.0,34.0,30.03,West,270,7.0,-999.0,80,-99.99,,,-99.99,,2013-03-28 14:32:00,
2013-03-28 10:42:00,39.0,34.0,30.03,West,270,5.0,-999.0,80,-99.99,,,-99.99,,2013-03-28 14:42:00,
2013-03-28 10:52:00,39.0,34.0,30.04,WSW,250,7.0,-999.0,80,-99.99,,,-99.99,,2013-03-28 14:52:00,
2013-03-28 11:02:00,39.0,34.0,30.04,WSW,250,7.0,-999.0,80,-99.99,,,-99.99,,2013-03-28 15:02:00,
2013-03-28 11:12:00,39.0,34.0,30.04,WSW,250,6.0,-999.0,80,-99.99,,,-99.99,,2013-03-28 15:12:00,
2013-03-28 11:22:00,43.0,36.0,30.04,SW,230,7.0,-999.0,75,-99.99,,,-99.99,,2013-03-28 15:22:00,
2013-03-28 11:33:00,43.0,34.0,30.04,West,260,7.0,-999.0,70,-99.99,,,-99.99,,2013-03-28 15:33:00,
2013-03-28 11:43:00,43.0,36.0,30.04,West,270,6.0,-999.0,75,-99.99,,,-99.99,,2013-03-28 15:43:00,
2013-03-28 11:52:00,43.0,36.0,30.04,West,280,7.0,-999.0,75,-99.99,,,-99.99,,2013-03-28 15:52:00,
2013-03-28 12:03:00,43.0,36.0,30.04,West,280,7.0,-999.0,75,-99.99,,,-99.99,,2013-03-28 16:03:00,
2013-03-28 12:12:00,43.0,36.0,30.04,WNW,300,5.0,-999.0,75,-99.99,,,-99.99,,2013-03-28 16:12:00,
2013-03-28 12:23:00,45.0,36.0,30.04,NW,320,9.0,-999.0,70,-99.99,,,-99.99,,2013-03-28 16:23:00,
2013-03-28 12:32:00,45.0,36.0,30.04,NW,310,9.0,-999.0,70,-99.99,,,-99.99,,2013-03-28 16:32:00,
2013-03-28 12:42:00,45.0,36.0,30.04,WNW,290,6.0,-999.0,70,-99.99,,,-99.99,,2013-03-28 16:42:00,
2013-03-28 12:52:00,45.0,36.0,30.04,WNW,300,7.0,-999.0,70,-99.99,,,-99.99,,2013-03-28 16:52:00,
2013-03-28 13:02:00,45.0,36.0,30.04,WNW,300,7.0,-999.0,70,-99.99,,,-99.99,,2013-03-28 17:02:00,
2013-03-28 13:12:00,45.0,36.0,30.04,West,280,6.0,-999.0,70,-99.99,,,-99.99,,2013-03-28 17:12:00,
2013-03-28 13:22:00,45.0,36.0,30.04,West,280,5.0,-999.0,70,-99.99,,,-99.99,,2013-03-28 17:22:00,
2013-03-28 13:32:00,45.0,36.0,30.04,WSW,250,7.0,-999.0,70,-99.99,,,-99.99,,2013-03-28 17:32:00,
2013-03-28 13:42:00,45.0,37.0,30.04,West,280,6.0,-999.0,75,-99.99,,,-99.99,,2013-03-28 17:42:00,
2013-03-28 13:52:00,45.0,36.0,30.04,NNW,340,5.0,-999.0,70,-99.99,,,-99.99,,2013-03-28 17:52:00,
2013-03-28 14:02:00,45.0,36.0,30.04,NNW,340,5.0,-999.0,70,-99.99,,,-99.99,,2013-03-28 18:02:00,
2013-03-28 14:12:00,46.0,36.0,30.03,North,350,3.0,-999.0,65,-99.99,,,-99.99,,2013-03-28 18:12:00,
2013-03-28 14:22:00,46.0,36.0,30.04,West,280,7.0,-999.0,65,-99.99,,,-99.99,,2013-03-28 18:22:00,
2013-03-28 14:32:00,46.0,36.0,30.03,West,280,5.0,-999.0,65,-99.99,,,-99.99,,2013-03-28 18:32:00,
2013-03-28 14:42:00,46.0,36.0,30.03,West,280,6.0,-999.0,65,-99.99,,,-99.99,,2013-03-28 18:42:00,
2013-03-28 14:52:00,46.0,36.0,30.03,West,280,5.0,-999.0,65,-99.99,,,-99.99,,2013-03-28 18:52:00,
2013-03-28 15:02:00,46.0,36.0,30.03,West,280,5.0,-999.0,65,-99.99,,,-99.99,,2013-03-28 19:02:00,
2013-03-28 15:12:00,46.0,36.0,30.03,NW,310,6.0,-999.0,65,-99.99,,,-99.99,,2013-03-28 19:12:00,
2013-03-28 15:22:00,46.0,36.0,30.03,WNW,290,3.0,-999.0,65,-99.99,,,-99.99,,2013-03-28 19:22:00,
2013-03-28 15:33:00,46.0,36.0,30.03,NW,310,3.0,-999.0,65,-99.99,,,-99.99,,2013-03-28 19:33:00,
2013-03-28 15:42:00,46.0,36.0,30.03,WNW,290,5.0,-999.0,65,-99.99,,,-99.99,,2013-03-28 19:42:00,
2013-03-28 15:52:00,46.0,36.0,30.03,NW,320,3.0,-999.0,65,-99.99,,,-99.99,,2013-03-28 19:52:00,
2013-03-28 16:03:00,46.0,36.0,30.03,NW,320,3.0,-999.0,65,-99.99,,,-99.99,,2013-03-28 20:03:00,
2013-03-28 16:12:00,46.0,36.0,30.03,WNW,300,5.0,-999.0,65,-99.99,,,-99.99,,2013-03-28 20:12:00,
2013-03-28 16:22:00,46.0,36.0,30.03,West,280,6.0,-999.0,65,-99.99,,,-99.99,,2013-03-28 20:22:00,
2013-03-28 16:32:00,46.0,36.0,30.03,West,280,5.0,-999.0,65,-99.99,,,-99.99,,2013-03-28 20:32:00,
2013-03-28 16:42:00,46.0,36.0,30.03,WNW,300,3.0,-999.0,65,-99.99,,,-99.99,,2013-03-28 20:42:00,
2013-03-28 16:52:00,46.0,36.0,30.03,NW,320,5.0,-999.0,65,-99.99,,,-99.99,,2013-03-28 20:52:00,
2013-03-28 17:02:00,46.0,36.0,30.03,NW,320,5.0,-999.0,65,-99.99,,,-99.99,,2013-03-28 21:02:00,
2013-03-28 17:12:00,46.0,36.0,30.03,WNW,300,6.0,-999.0,65,-99.99,,,-99.99,,2013-03-28 21:12:00,
2013-03-28 17:22:00,46.0,36.0,30.03,WNW,290,3.0,-999.0,65,-99.99,,,-99.99,,2013-03-28 21:22:00,
2013-03-28 17:32:00,46.0,37.0,30.04,NW,310,3.0,-999.0,70,-99.99,,,-99.99,,2013-03-28 21:32:00,
2013-03-28 17:43:00,46.0,37.0,30.04,WNW,300,3.0,-999.0,70,-99.99,,,-99.99,,2013-03-28 21:43:00,
2013-03-28 17:53:00,46.0,37.0,30.04,WNW,300,5.0,-999.0,70,-99.99,,,-99.99,,2013-03-28 21:53:00,
2013-03-28 18:03:00,46.0,37.0,30.04,WNW,300,5.0,-999.0,70,-99.99,,,-99.99,,2013-03-28 22:03:00,
2013-03-28 18:12:00,46.0,37.0,30.04,WNW,290,3.0,-999.0,70,-99.99,,,-99.99,,2013-03-28 22:12:00,
2013-03-28 18:22:00,46.0,37.0,30.04,West,270,6.0,-999.0,70,-99.99,,,-99.99,,2013-03-28 22:22:00,
2013-03-28 18:32:00,46.0,37.0,30.04,WSW,250,6.0,-999.0,70,-99.99,,,-99.99,,2013-03-28 22:32:00,
2013-03-28 18:42:00,45.0,37.0,30.05,WSW,250,5.0,-999.0,75,-99.99,,,-99.99,,2013-03-28 22:42:00,
2013-03-28 18:52:00,45.0,37.0,30.05,WSW,240,5.0,-999.0,75,-99.99,,,-99.99,,2013-03-28 22:52:00,
2013-03-28 19:03:00,45.0,37.0,30.05,WSW,240,5.0,-999.0,75,-99.99,,,-99.99,,2013-03-28 23:03:00,
2013-03-28 19:12:00,45.0,37.0,30.05,WSW,240,6.0,-999.0,75,-99.99,,,-99.99,,2013-03-28 23:12:00,
2013-03-28 19:22:00,43.0,37.0,30.06,WSW,240,5.0,-999.0,81,-99.99,,,-99.99,,2013-03-28 23:22:00,
2013-03-28 19:32:00,43.0,36.0,30.06,WSW,240,6.0,-999.0,75,-99.99,,,-99.99,,2013-03-28 23:32:00,
2013-03-28 19:42:00,43.0,36.0,30.06,SW,230,7.0,-999.0,75,-99.99,,,-99.99,,2013-03-28 23:42:00,
2013-03-28 19:52:00,41.0,36.0,30.06,WSW,240,6.0,-999.0,80,-99.99,,,-99.99,,2013-03-28 23:52:00,
2013-03-28 20:02:00,41.0,36.0,30.06,WSW,240,6.0,-999.0,80,-99.99,,,-99.99,,2013-03-29 00:02:00,
2013-03-28 20:12:00,39.0,36.0,30.06,WSW,240,6.0,-999.0,86,-99.99,,,-99.99,,2013-03-29 00:12:00,
2013-03-28 20:22:00,39.0,36.0,30.07,SW,230,3.0,-999.0,86,-99.99,,,-99.99,,2013-03-29 00:22:00,
2013-03-28 20:32:00,41.0,36.0,30.07,SW,230,3.0,-999.0,80,-99.99,,,-99.99,,2013-03-29 00:32:00,
2013-03-28 20:42:00,41.0,37.0,30.07,SW,230,3.0,-999.0,86,-99.99,,,-99.99,,2013-03-29 00:42:00,
2013-03-28 20:52:00,41.0,37.0,30.08,SW,230,3.0,-999.0,86,-99.99,,,-99.99,,2013-03-29 00:52:00,
2013-03-28 21:02:00,41.0,37.0,30.08,SW,230,3.0,-999.0,86,-99.99,,,-99.99,,2013-03-29 01:02:00,
2013-03-28 21:12:00,39.0,36.0,30.08,WSW,240,6.0,-999.0,86,-99.99,,,-99.99,,2013-03-29 01:12:00,
2013-03-28 21:22:00,39.0,36.0,30.09,WSW,240,7.0,-999.0,86,-99.99,,,-99.99,,2013-03-29 01:22:00,
2013-03-28 21:32:00,39.0,36.0,30.09,WSW,250,8.0,-999.0,86,-99.99,,,-99.99,,2013-03-29 01:32:00,
2013-03-28 21:42:00,39.0,36.0,30.09,WSW,250,8.0,-999.0,86,-99.99,,,-99.99,,2013-03-29 01:42:00,
2013-03-28 21:52:00,39.0,36.0,30.09,WSW,240,8.0,-999.0,86,-99.99,,,-99.99,,2013-03-29 01:52:00,
2013-03-28 22:02:00,39.0,36.0,30.09,WSW,240,8.0,-999.0,86,-99.99,,,-99.99,,2013-03-29 02:02:00,
2013-03-28 22:12:00,39.0,36.0,30.09,WSW,240,10.0,-999.0,86,-99.99,,,-99.99,,2013-03-29 02:12:00,
2013-03-28 22:22:00,39.0,36.0,30.09,WSW,240,8.0,-999.0,86,-99.99,,,-99.99,,2013-03-29 02:22:00,
2013-03-28 22:32:00,39.0,36.0,30.09,WSW,240,8.0,-999.0,86,-99.99,,,-99.99,,2013-03-29 02:32:00,
2013-03-28 22:42:00,39.0,36.0,30.09,WSW,240,8.0,-999.0,86,-99.99,,,-99.99,,2013-03-29 02:42:00,
2013-03-28 22:52:00,39.0,36.0,30.08,WSW,250,9.0,-999.0,86,-99.99,,,-99.99,,2013-03-29 02:52:00,
2013-03-28 23:02:00,39.0,36.0,30.08,WSW,250,9.0,-999.0,86,-99.99,,,-99.99,,2013-03-29 03:02:00,
2013-03-28 23:12:00,39.0,36.0,30.09,WSW,240,8.0,-999.0,86,-99.99,,,-99.99,,2013-03-29 03:12:00,
2013-03-28 23:22:00,39.0,36.0,30.09,WSW,240,8.0,-999.0,86,-99.99,,,-99.99,,2013-03-29 03:22:00,
2013-03-28 23:32:00,39.0,36.0,30.09,WSW,240,7.0,-999.0,86,-99.99,,,-99.99,,2013-03-29 03:32:00,
2013-03-28 23:42:00,39.0,36.0,30.09,WSW,240,7.0,-999.0,86,-99.99,,,-99.99,,2013-03-29 03:42:00,
2013-03-28 23:53:00,39.0,36.0,30.09,WSW,240,8.0,-999.0,86,-99.99,,,-99.99,,2013-03-29 03:53:00,